sensor_id;sensor_type;location;lat;lon;timestamp;P1;durP1;ratioP1;P2;durP2;ratioP2
15327;SDS011;7764;51.430;6.840;2024-02-26T00:02:10;6.70;;;3.23;;
15327;SDS011;7764;51.430;6.840;2024-02-26T00:04:39;6.13;;;3.43;;
15327;SDS011;7764;51.430;6.840;2024-02-26T00:07:06;4.33;;;2.80;;
15327;SDS011;7764;51.430;6.840;2024-02-26T00:09:32;5.43;;;2.97;;
15327;SDS011;7764;51.430;6.840;2024-02-26T00:12:01;5.93;;;3.00;;
15327;SDS011;7764;51.430;6.840;2024-02-26T00:14:28;4.83;;;3.00;;
15327;SDS011;7764;51.430;6.840;2024-02-26T00:16:55;5.80;;;3.03;;
15327;SDS011;7764;51.430;6.840;2024-02-26T00:19:22;4.57;;;2.90;;
15327;SDS011;7764;51.430;6.840;2024-02-26T00:21:50;5.03;;;3.00;;
15327;SDS011;7764;51.430;6.840;2024-02-26T00:24:18;4.77;;;2.90;;
15327;SDS011;7764;51.430;6.840;2024-02-26T00:26:45;5.50;;;3.00;;
15327;SDS011;7764;51.430;6.840;2024-02-26T00:29:18;6.33;;;3.13;;
15327;SDS011;7764;51.430;6.840;2024-02-26T00:31:45;4.90;;;2.93;;
15327;SDS011;7764;51.430;6.840;2024-02-26T00:34:12;4.17;;;2.50;;
15327;SDS011;7764;51.430;6.840;2024-02-26T00:36:38;4.47;;;2.73;;
15327;SDS011;7764;51.430;6.840;2024-02-26T00:39:07;4.07;;;2.53;;
15327;SDS011;7764;51.430;6.840;2024-02-26T00:41:37;4.77;;;2.73;;
15327;SDS011;7764;51.430;6.840;2024-02-26T00:44:05;4.50;;;2.77;;
15327;SDS011;7764;51.430;6.840;2024-02-26T00:46:32;6.83;;;3.17;;
15327;SDS011;7764;51.430;6.840;2024-02-26T00:48:58;7.67;;;4.23;;
15327;SDS011;7764;51.430;6.840;2024-02-26T00:51:26;7.57;;;4.67;;
15327;SDS011;7764;51.430;6.840;2024-02-26T00:53:53;5.97;;;3.63;;
15327;SDS011;7764;51.430;6.840;2024-02-26T00:56:22;4.80;;;2.73;;
15327;SDS011;7764;51.430;6.840;2024-02-26T00:58:49;5.40;;;3.03;;
15327;SDS011;7764;51.430;6.840;2024-02-26T01:01:16;5.23;;;3.03;;
15327;SDS011;7764;51.430;6.840;2024-02-26T01:03:43;5.30;;;3.00;;
15327;SDS011;7764;51.430;6.840;2024-02-26T01:06:09;4.93;;;2.77;;
15327;SDS011;7764;51.430;6.840;2024-02-26T01:08:36;5.03;;;2.90;;
15327;SDS011;7764;51.430;6.840;2024-02-26T01:11:04;3.67;;;2.57;;
15327;SDS011;7764;51.430;6.840;2024-02-26T01:13:32;4.13;;;2.77;;
15327;SDS011;7764;51.430;6.840;2024-02-26T01:15:59;3.47;;;2.43;;
15327;SDS011;7764;51.430;6.840;2024-02-26T01:18:26;4.30;;;2.60;;
15327;SDS011;7764;51.430;6.840;2024-02-26T01:20:53;5.10;;;2.47;;
15327;SDS011;7764;51.430;6.840;2024-02-26T01:23:20;3.93;;;2.70;;
15327;SDS011;7764;51.430;6.840;2024-02-26T01:25:47;4.90;;;2.63;;
15327;SDS011;7764;51.430;6.840;2024-02-26T01:28:14;5.67;;;2.87;;
15327;SDS011;7764;51.430;6.840;2024-02-26T01:30:42;3.90;;;2.57;;
15327;SDS011;7764;51.430;6.840;2024-02-26T01:33:09;4.37;;;2.40;;
15327;SDS011;7764;51.430;6.840;2024-02-26T01:35:36;3.90;;;2.43;;
15327;SDS011;7764;51.430;6.840;2024-02-26T01:38:03;4.40;;;2.43;;
15327;SDS011;7764;51.430;6.840;2024-02-26T01:40:30;3.50;;;2.27;;
15327;SDS011;7764;51.430;6.840;2024-02-26T01:42:58;4.73;;;2.50;;
15327;SDS011;7764;51.430;6.840;2024-02-26T01:45:25;3.93;;;2.50;;
15327;SDS011;7764;51.430;6.840;2024-02-26T01:47:54;3.30;;;2.20;;
15327;SDS011;7764;51.430;6.840;2024-02-26T01:50:23;3.40;;;2.40;;
15327;SDS011;7764;51.430;6.840;2024-02-26T01:52:50;3.87;;;2.50;;
15327;SDS011;7764;51.430;6.840;2024-02-26T01:55:19;4.10;;;2.60;;
15327;SDS011;7764;51.430;6.840;2024-02-26T01:57:47;4.30;;;2.80;;
15327;SDS011;7764;51.430;6.840;2024-02-26T02:00:16;5.30;;;2.70;;
15327;SDS011;7764;51.430;6.840;2024-02-26T02:02:45;4.60;;;2.80;;
15327;SDS011;7764;51.430;6.840;2024-02-26T02:05:14;3.93;;;2.57;;
15327;SDS011;7764;51.430;6.840;2024-02-26T02:07:43;4.90;;;2.80;;
15327;SDS011;7764;51.430;6.840;2024-02-26T02:10:10;4.63;;;2.60;;
15327;SDS011;7764;51.430;6.840;2024-02-26T02:12:37;4.57;;;2.80;;
15327;SDS011;7764;51.430;6.840;2024-02-26T02:15:05;4.50;;;2.87;;
15327;SDS011;7764;51.430;6.840;2024-02-26T02:17:33;6.13;;;3.20;;
15327;SDS011;7764;51.430;6.840;2024-02-26T02:20:00;5.30;;;3.20;;
15327;SDS011;7764;51.430;6.840;2024-02-26T02:22:29;6.27;;;3.10;;
15327;SDS011;7764;51.430;6.840;2024-02-26T02:24:59;4.53;;;2.70;;
15327;SDS011;7764;51.430;6.840;2024-02-26T02:27:26;5.20;;;2.90;;
15327;SDS011;7764;51.430;6.840;2024-02-26T02:29:53;4.73;;;2.70;;
15327;SDS011;7764;51.430;6.840;2024-02-26T02:32:20;5.00;;;3.10;;
15327;SDS011;7764;51.430;6.840;2024-02-26T02:34:49;4.30;;;2.83;;
15327;SDS011;7764;51.430;6.840;2024-02-26T02:37:16;5.07;;;3.00;;
15327;SDS011;7764;51.430;6.840;2024-02-26T02:39:44;6.00;;;3.03;;
15327;SDS011;7764;51.430;6.840;2024-02-26T02:42:11;4.87;;;3.27;;
15327;SDS011;7764;51.430;6.840;2024-02-26T02:44:38;5.87;;;3.10;;
15327;SDS011;7764;51.430;6.840;2024-02-26T02:47:05;5.67;;;3.10;;
15327;SDS011;7764;51.430;6.840;2024-02-26T02:49:31;7.43;;;4.10;;
15327;SDS011;7764;51.430;6.840;2024-02-26T02:51:58;5.73;;;3.47;;
15327;SDS011;7764;51.430;6.840;2024-02-26T02:54:26;7.90;;;3.20;;
15327;SDS011;7764;51.430;6.840;2024-02-26T02:56:54;5.60;;;3.43;;
15327;SDS011;7764;51.430;6.840;2024-02-26T02:59:21;4.83;;;3.00;;
15327;SDS011;7764;51.430;6.840;2024-02-26T03:01:48;5.87;;;3.20;;
15327;SDS011;7764;51.430;6.840;2024-02-26T03:04:14;6.90;;;3.47;;
15327;SDS011;7764;51.430;6.840;2024-02-26T03:06:41;7.60;;;3.20;;
15327;SDS011;7764;51.430;6.840;2024-02-26T03:09:08;5.30;;;3.27;;
15327;SDS011;7764;51.430;6.840;2024-02-26T03:11:35;5.20;;;3.30;;
15327;SDS011;7764;51.430;6.840;2024-02-26T03:14:05;6.27;;;3.57;;
15327;SDS011;7764;51.430;6.840;2024-02-26T03:16:32;6.00;;;3.60;;
15327;SDS011;7764;51.430;6.840;2024-02-26T03:18:59;7.63;;;3.83;;
15327;SDS011;7764;51.430;6.840;2024-02-26T03:21:26;6.10;;;3.83;;
15327;SDS011;7764;51.430;6.840;2024-02-26T03:23:53;7.30;;;4.10;;
15327;SDS011;7764;51.430;6.840;2024-02-26T03:26:20;7.50;;;3.73;;
15327;SDS011;7764;51.430;6.840;2024-02-26T03:28:47;6.50;;;3.57;;
15327;SDS011;7764;51.430;6.840;2024-02-26T03:31:15;6.73;;;3.97;;
15327;SDS011;7764;51.430;6.840;2024-02-26T03:33:42;7.10;;;3.83;;
15327;SDS011;7764;51.430;6.840;2024-02-26T03:36:09;5.40;;;3.60;;
15327;SDS011;7764;51.430;6.840;2024-02-26T03:38:36;5.97;;;3.60;;
15327;SDS011;7764;51.430;6.840;2024-02-26T03:41:04;6.77;;;4.50;;
15327;SDS011;7764;51.430;6.840;2024-02-26T03:43:31;5.50;;;3.43;;
15327;SDS011;7764;51.430;6.840;2024-02-26T03:45:58;4.97;;;3.30;;
15327;SDS011;7764;51.430;6.840;2024-02-26T03:48:26;8.93;;;4.00;;
15327;SDS011;7764;51.430;6.840;2024-02-26T03:50:53;5.30;;;3.30;;
15327;SDS011;7764;51.430;6.840;2024-02-26T03:53:20;5.83;;;3.40;;
15327;SDS011;7764;51.430;6.840;2024-02-26T03:55:46;5.20;;;3.60;;
15327;SDS011;7764;51.430;6.840;2024-02-26T03:58:14;5.27;;;3.30;;
15327;SDS011;7764;51.430;6.840;2024-02-26T04:00:42;4.77;;;3.30;;
15327;SDS011;7764;51.430;6.840;2024-02-26T04:03:09;5.30;;;3.63;;
15327;SDS011;7764;51.430;6.840;2024-02-26T04:05:37;5.97;;;3.90;;
15327;SDS011;7764;51.430;6.840;2024-02-26T04:08:04;5.97;;;3.60;;
15327;SDS011;7764;51.430;6.840;2024-02-26T04:10:32;7.10;;;3.87;;
15327;SDS011;7764;51.430;6.840;2024-02-26T04:13:03;5.53;;;3.73;;
15327;SDS011;7764;51.430;6.840;2024-02-26T04:15:30;7.63;;;3.90;;
15327;SDS011;7764;51.430;6.840;2024-02-26T04:17:57;5.87;;;3.70;;
15327;SDS011;7764;51.430;6.840;2024-02-26T04:20:24;5.50;;;3.80;;
15327;SDS011;7764;51.430;6.840;2024-02-26T04:22:52;5.43;;;3.70;;
15327;SDS011;7764;51.430;6.840;2024-02-26T04:25:19;5.50;;;3.60;;
15327;SDS011;7764;51.430;6.840;2024-02-26T04:27:46;5.63;;;3.53;;
15327;SDS011;7764;51.430;6.840;2024-02-26T04:30:13;6.07;;;3.97;;
15327;SDS011;7764;51.430;6.840;2024-02-26T04:32:39;6.80;;;4.00;;
15327;SDS011;7764;51.430;6.840;2024-02-26T04:35:06;5.60;;;3.60;;
15327;SDS011;7764;51.430;6.840;2024-02-26T04:37:33;6.23;;;4.07;;
15327;SDS011;7764;51.430;6.840;2024-02-26T04:40:02;5.43;;;3.80;;
15327;SDS011;7764;51.430;6.840;2024-02-26T04:42:29;6.47;;;4.57;;
15327;SDS011;7764;51.430;6.840;2024-02-26T04:44:56;7.63;;;4.60;;
15327;SDS011;7764;51.430;6.840;2024-02-26T04:47:23;6.60;;;4.20;;
15327;SDS011;7764;51.430;6.840;2024-02-26T04:49:50;5.10;;;3.83;;
15327;SDS011;7764;51.430;6.840;2024-02-26T04:52:19;6.53;;;4.17;;
15327;SDS011;7764;51.430;6.840;2024-02-26T04:54:46;6.30;;;4.20;;
15327;SDS011;7764;51.430;6.840;2024-02-26T04:57:14;6.70;;;4.30;;
15327;SDS011;7764;51.430;6.840;2024-02-26T04:59:43;7.80;;;4.50;;
15327;SDS011;7764;51.430;6.840;2024-02-26T05:02:10;6.40;;;4.50;;
15327;SDS011;7764;51.430;6.840;2024-02-26T05:04:37;5.53;;;3.97;;
15327;SDS011;7764;51.430;6.840;2024-02-26T05:07:04;9.57;;;4.47;;
15327;SDS011;7764;51.430;6.840;2024-02-26T05:09:31;6.47;;;4.13;;
15327;SDS011;7764;51.430;6.840;2024-02-26T05:11:58;8.03;;;4.53;;
15327;SDS011;7764;51.430;6.840;2024-02-26T05:14:26;7.20;;;4.53;;
15327;SDS011;7764;51.430;6.840;2024-02-26T05:16:53;8.10;;;5.10;;
15327;SDS011;7764;51.430;6.840;2024-02-26T05:19:21;8.03;;;5.23;;
15327;SDS011;7764;51.430;6.840;2024-02-26T05:21:48;9.47;;;5.13;;
15327;SDS011;7764;51.430;6.840;2024-02-26T05:24:15;8.20;;;5.10;;
15327;SDS011;7764;51.430;6.840;2024-02-26T05:26:42;11.47;;;7.37;;
15327;SDS011;7764;51.430;6.840;2024-02-26T05:29:09;10.23;;;6.07;;
15327;SDS011;7764;51.430;6.840;2024-02-26T05:31:38;7.73;;;4.67;;
15327;SDS011;7764;51.430;6.840;2024-02-26T05:34:05;7.90;;;5.10;;
15327;SDS011;7764;51.430;6.840;2024-02-26T05:36:31;7.43;;;4.67;;
15327;SDS011;7764;51.430;6.840;2024-02-26T05:38:59;7.17;;;4.80;;
15327;SDS011;7764;51.430;6.840;2024-02-26T05:41:26;7.10;;;4.63;;
15327;SDS011;7764;51.430;6.840;2024-02-26T05:43:53;7.00;;;4.90;;
15327;SDS011;7764;51.430;6.840;2024-02-26T05:46:20;7.00;;;5.07;;
15327;SDS011;7764;51.430;6.840;2024-02-26T05:48:49;7.97;;;4.80;;
15327;SDS011;7764;51.430;6.840;2024-02-26T05:51:16;6.47;;;4.50;;
15327;SDS011;7764;51.430;6.840;2024-02-26T05:53:43;8.03;;;5.00;;
15327;SDS011;7764;51.430;6.840;2024-02-26T05:56:11;7.63;;;5.20;;
15327;SDS011;7764;51.430;6.840;2024-02-26T05:58:38;7.17;;;4.67;;
15327;SDS011;7764;51.430;6.840;2024-02-26T06:01:05;9.33;;;5.60;;
15327;SDS011;7764;51.430;6.840;2024-02-26T06:03:32;9.67;;;4.73;;
15327;SDS011;7764;51.430;6.840;2024-02-26T06:06:00;6.60;;;4.80;;
15327;SDS011;7764;51.430;6.840;2024-02-26T06:08:27;8.27;;;5.20;;
15327;SDS011;7764;51.430;6.840;2024-02-26T06:10:54;6.93;;;4.57;;
15327;SDS011;7764;51.430;6.840;2024-02-26T06:13:21;9.93;;;5.07;;
15327;SDS011;7764;51.430;6.840;2024-02-26T06:15:48;8.43;;;5.10;;
15327;SDS011;7764;51.430;6.840;2024-02-26T06:18:15;8.17;;;4.73;;
15327;SDS011;7764;51.430;6.840;2024-02-26T06:20:41;8.80;;;4.90;;
15327;SDS011;7764;51.430;6.840;2024-02-26T06:23:10;8.43;;;5.00;;
15327;SDS011;7764;51.430;6.840;2024-02-26T06:25:36;11.50;;;5.00;;
15327;SDS011;7764;51.430;6.840;2024-02-26T06:28:03;6.83;;;4.97;;
15327;SDS011;7764;51.430;6.840;2024-02-26T06:30:31;9.17;;;5.60;;
15327;SDS011;7764;51.430;6.840;2024-02-26T06:33:01;8.50;;;6.10;;
15327;SDS011;7764;51.430;6.840;2024-02-26T06:35:28;7.70;;;5.17;;
15327;SDS011;7764;51.430;6.840;2024-02-26T06:37:55;8.27;;;5.53;;
15327;SDS011;7764;51.430;6.840;2024-02-26T06:40:23;9.57;;;5.10;;
15327;SDS011;7764;51.430;6.840;2024-02-26T06:42:50;7.20;;;5.33;;
15327;SDS011;7764;51.430;6.840;2024-02-26T06:45:17;8.63;;;4.47;;
15327;SDS011;7764;51.430;6.840;2024-02-26T06:47:44;8.73;;;5.50;;
15327;SDS011;7764;51.430;6.840;2024-02-26T06:50:11;7.63;;;5.40;;
15327;SDS011;7764;51.430;6.840;2024-02-26T06:52:39;8.20;;;5.37;;
15327;SDS011;7764;51.430;6.840;2024-02-26T06:55:06;8.03;;;5.27;;
15327;SDS011;7764;51.430;6.840;2024-02-26T06:57:35;7.40;;;5.20;;
15327;SDS011;7764;51.430;6.840;2024-02-26T07:00:03;8.00;;;5.20;;
15327;SDS011;7764;51.430;6.840;2024-02-26T07:02:30;8.90;;;6.73;;
15327;SDS011;7764;51.430;6.840;2024-02-26T07:04:57;9.93;;;5.23;;
15327;SDS011;7764;51.430;6.840;2024-02-26T07:07:25;8.03;;;5.43;;
15327;SDS011;7764;51.430;6.840;2024-02-26T07:09:52;8.70;;;5.00;;
15327;SDS011;7764;51.430;6.840;2024-02-26T07:12:19;8.90;;;5.43;;
15327;SDS011;7764;51.430;6.840;2024-02-26T07:14:48;9.50;;;6.37;;
15327;SDS011;7764;51.430;6.840;2024-02-26T07:17:17;9.57;;;5.60;;
15327;SDS011;7764;51.430;6.840;2024-02-26T07:19:46;9.40;;;5.80;;
15327;SDS011;7764;51.430;6.840;2024-02-26T07:22:13;8.50;;;5.50;;
15327;SDS011;7764;51.430;6.840;2024-02-26T07:24:40;7.77;;;5.17;;
15327;SDS011;7764;51.430;6.840;2024-02-26T07:27:07;9.47;;;5.83;;
15327;SDS011;7764;51.430;6.840;2024-02-26T07:29:34;6.93;;;5.07;;
15327;SDS011;7764;51.430;6.840;2024-02-26T07:32:02;8.37;;;5.00;;
15327;SDS011;7764;51.430;6.840;2024-02-26T07:34:29;7.33;;;4.73;;
15327;SDS011;7764;51.430;6.840;2024-02-26T07:36:56;7.13;;;4.80;;
15327;SDS011;7764;51.430;6.840;2024-02-26T07:39:23;6.93;;;4.97;;
15327;SDS011;7764;51.430;6.840;2024-02-26T07:41:50;6.80;;;4.70;;
15327;SDS011;7764;51.430;6.840;2024-02-26T07:44:18;6.50;;;4.53;;
15327;SDS011;7764;51.430;6.840;2024-02-26T07:46:44;6.90;;;4.97;;
15327;SDS011;7764;51.430;6.840;2024-02-26T07:49:13;9.00;;;4.60;;
15327;SDS011;7764;51.430;6.840;2024-02-26T07:51:40;7.90;;;5.20;;
15327;SDS011;7764;51.430;6.840;2024-02-26T07:54:07;7.87;;;4.93;;
15327;SDS011;7764;51.430;6.840;2024-02-26T07:56:34;10.10;;;6.20;;
15327;SDS011;7764;51.430;6.840;2024-02-26T07:59:01;9.63;;;6.47;;
15327;SDS011;7764;51.430;6.840;2024-02-26T08:01:28;13.33;;;8.07;;
15327;SDS011;7764;51.430;6.840;2024-02-26T08:03:55;21.33;;;12.40;;
15327;SDS011;7764;51.430;6.840;2024-02-26T08:06:23;13.80;;;7.80;;
15327;SDS011;7764;51.430;6.840;2024-02-26T08:08:50;12.00;;;6.90;;
15327;SDS011;7764;51.430;6.840;2024-02-26T08:11:18;9.03;;;5.30;;
15327;SDS011;7764;51.430;6.840;2024-02-26T08:13:45;10.37;;;6.40;;
15327;SDS011;7764;51.430;6.840;2024-02-26T08:16:12;10.40;;;5.60;;
15327;SDS011;7764;51.430;6.840;2024-02-26T08:18:39;8.67;;;4.80;;
15327;SDS011;7764;51.430;6.840;2024-02-26T08:21:06;8.93;;;5.20;;
15327;SDS011;7764;51.430;6.840;2024-02-26T08:23:35;7.87;;;4.63;;
15327;SDS011;7764;51.430;6.840;2024-02-26T08:26:01;8.23;;;5.10;;
15327;SDS011;7764;51.430;6.840;2024-02-26T08:28:32;7.63;;;4.93;;
15327;SDS011;7764;51.430;6.840;2024-02-26T08:30:59;7.77;;;4.90;;
15327;SDS011;7764;51.430;6.840;2024-02-26T08:33:26;8.67;;;5.77;;
15327;SDS011;7764;51.430;6.840;2024-02-26T08:35:53;13.10;;;6.13;;
15327;SDS011;7764;51.430;6.840;2024-02-26T08:38:20;11.70;;;7.03;;
15327;SDS011;7764;51.430;6.840;2024-02-26T08:40:50;12.60;;;7.50;;
15327;SDS011;7764;51.430;6.840;2024-02-26T08:43:16;8.23;;;5.60;;
15327;SDS011;7764;51.430;6.840;2024-02-26T08:45:44;8.03;;;5.30;;
15327;SDS011;7764;51.430;6.840;2024-02-26T08:48:11;9.97;;;5.90;;
15327;SDS011;7764;51.430;6.840;2024-02-26T08:50:38;10.37;;;5.57;;
15327;SDS011;7764;51.430;6.840;2024-02-26T08:53:05;8.60;;;5.77;;
15327;SDS011;7764;51.430;6.840;2024-02-26T08:55:33;10.00;;;5.80;;
15327;SDS011;7764;51.430;6.840;2024-02-26T08:58:02;9.17;;;5.73;;
15327;SDS011;7764;51.430;6.840;2024-02-26T09:00:29;8.90;;;6.40;;
15327;SDS011;7764;51.430;6.840;2024-02-26T09:02:56;10.43;;;6.10;;
15327;SDS011;7764;51.430;6.840;2024-02-26T09:05:22;11.90;;;7.50;;
15327;SDS011;7764;51.430;6.840;2024-02-26T09:07:48;9.30;;;6.40;;
15327;SDS011;7764;51.430;6.840;2024-02-26T09:10:17;9.23;;;6.37;;
15327;SDS011;7764;51.430;6.840;2024-02-26T09:12:44;9.77;;;5.90;;
15327;SDS011;7764;51.430;6.840;2024-02-26T09:15:13;10.37;;;6.60;;
15327;SDS011;7764;51.430;6.840;2024-02-26T09:17:40;10.43;;;7.53;;
15327;SDS011;7764;51.430;6.840;2024-02-26T09:20:07;12.47;;;8.00;;
15327;SDS011;7764;51.430;6.840;2024-02-26T09:22:35;9.73;;;6.80;;
15327;SDS011;7764;51.430;6.840;2024-02-26T09:25:03;13.43;;;6.93;;
15327;SDS011;7764;51.430;6.840;2024-02-26T09:27:31;9.57;;;6.50;;
15327;SDS011;7764;51.430;6.840;2024-02-26T09:29:58;9.47;;;6.47;;
15327;SDS011;7764;51.430;6.840;2024-02-26T09:32:27;10.10;;;6.50;;
15327;SDS011;7764;51.430;6.840;2024-02-26T09:34:55;8.53;;;6.37;;
15327;SDS011;7764;51.430;6.840;2024-02-26T09:37:22;10.20;;;6.90;;
15327;SDS011;7764;51.430;6.840;2024-02-26T09:39:49;11.30;;;6.73;;
15327;SDS011;7764;51.430;6.840;2024-02-26T09:42:19;9.63;;;6.73;;
15327;SDS011;7764;51.430;6.840;2024-02-26T09:44:46;10.93;;;6.83;;
15327;SDS011;7764;51.430;6.840;2024-02-26T09:47:18;10.03;;;6.77;;
15327;SDS011;7764;51.430;6.840;2024-02-26T09:49:47;10.57;;;7.07;;
15327;SDS011;7764;51.430;6.840;2024-02-26T09:52:14;9.93;;;7.00;;
15327;SDS011;7764;51.430;6.840;2024-02-26T09:54:45;15.53;;;7.60;;
15327;SDS011;7764;51.430;6.840;2024-02-26T09:57:13;12.43;;;8.13;;
15327;SDS011;7764;51.430;6.840;2024-02-26T09:59:43;13.40;;;8.53;;
15327;SDS011;7764;51.430;6.840;2024-02-26T10:02:12;10.77;;;7.33;;
15327;SDS011;7764;51.430;6.840;2024-02-26T10:04:41;10.27;;;7.07;;
15327;SDS011;7764;51.430;6.840;2024-02-26T10:07:11;14.10;;;7.50;;
15327;SDS011;7764;51.430;6.840;2024-02-26T10:09:39;11.23;;;7.27;;
15327;SDS011;7764;51.430;6.840;2024-02-26T10:12:07;13.17;;;8.10;;
15327;SDS011;7764;51.430;6.840;2024-02-26T10:14:37;11.10;;;6.83;;
15327;SDS011;7764;51.430;6.840;2024-02-26T10:17:04;11.53;;;7.50;;
15327;SDS011;7764;51.430;6.840;2024-02-26T10:19:34;11.63;;;7.70;;
15327;SDS011;7764;51.430;6.840;2024-02-26T10:22:01;9.87;;;7.03;;
15327;SDS011;7764;51.430;6.840;2024-02-26T10:24:30;11.60;;;7.90;;
15327;SDS011;7764;51.430;6.840;2024-02-26T10:26:57;10.90;;;7.57;;
15327;SDS011;7764;51.430;6.840;2024-02-26T10:29:25;13.13;;;7.80;;
15327;SDS011;7764;51.430;6.840;2024-02-26T10:31:52;13.83;;;8.43;;
15327;SDS011;7764;51.430;6.840;2024-02-26T10:34:19;12.87;;;8.37;;
15327;SDS011;7764;51.430;6.840;2024-02-26T10:36:47;15.13;;;9.40;;
15327;SDS011;7764;51.430;6.840;2024-02-26T10:39:13;12.47;;;7.67;;
15327;SDS011;7764;51.430;6.840;2024-02-26T10:41:42;10.53;;;7.50;;
15327;SDS011;7764;51.430;6.840;2024-02-26T10:44:10;12.33;;;7.37;;
15327;SDS011;7764;51.430;6.840;2024-02-26T10:46:40;11.43;;;7.73;;
15327;SDS011;7764;51.430;6.840;2024-02-26T10:49:12;11.40;;;7.20;;
15327;SDS011;7764;51.430;6.840;2024-02-26T10:51:43;11.70;;;7.90;;
15327;SDS011;7764;51.430;6.840;2024-02-26T10:54:12;12.27;;;7.70;;
15327;SDS011;7764;51.430;6.840;2024-02-26T10:56:43;11.67;;;8.00;;
15327;SDS011;7764;51.430;6.840;2024-02-26T10:59:14;12.73;;;7.73;;
15327;SDS011;7764;51.430;6.840;2024-02-26T11:01:45;12.73;;;8.27;;
15327;SDS011;7764;51.430;6.840;2024-02-26T11:04:14;11.53;;;7.50;;
15327;SDS011;7764;51.430;6.840;2024-02-26T11:06:42;12.37;;;8.23;;
15327;SDS011;7764;51.430;6.840;2024-02-26T11:09:10;12.77;;;8.63;;
15327;SDS011;7764;51.430;6.840;2024-02-26T11:11:39;16.27;;;10.10;;
15327;SDS011;7764;51.430;6.840;2024-02-26T11:14:09;12.70;;;8.07;;
15327;SDS011;7764;51.430;6.840;2024-02-26T11:16:39;11.93;;;8.30;;
15327;SDS011;7764;51.430;6.840;2024-02-26T11:19:08;11.80;;;7.90;;
15327;SDS011;7764;51.430;6.840;2024-02-26T11:21:36;11.97;;;7.63;;
15327;SDS011;7764;51.430;6.840;2024-02-26T11:24:07;11.33;;;7.77;;
15327;SDS011;7764;51.430;6.840;2024-02-26T11:26:38;10.03;;;7.80;;
15327;SDS011;7764;51.430;6.840;2024-02-26T11:29:11;12.43;;;7.97;;
15327;SDS011;7764;51.430;6.840;2024-02-26T11:31:40;11.90;;;7.37;;
15327;SDS011;7764;51.430;6.840;2024-02-26T11:34:08;11.20;;;7.70;;
15327;SDS011;7764;51.430;6.840;2024-02-26T11:36:36;12.43;;;7.80;;
15327;SDS011;7764;51.430;6.840;2024-02-26T11:39:04;11.47;;;7.53;;
15327;SDS011;7764;51.430;6.840;2024-02-26T11:41:31;11.20;;;8.40;;
15327;SDS011;7764;51.430;6.840;2024-02-26T11:43:59;12.50;;;8.40;;
15327;SDS011;7764;51.430;6.840;2024-02-26T11:46:29;11.10;;;7.50;;
15327;SDS011;7764;51.430;6.840;2024-02-26T11:49:00;11.17;;;7.90;;
15327;SDS011;7764;51.430;6.840;2024-02-26T11:51:32;11.90;;;7.40;;
15327;SDS011;7764;51.430;6.840;2024-02-26T11:54:00;10.13;;;6.93;;
15327;SDS011;7764;51.430;6.840;2024-02-26T11:56:27;12.10;;;8.13;;
15327;SDS011;7764;51.430;6.840;2024-02-26T11:58:58;11.87;;;8.60;;
15327;SDS011;7764;51.430;6.840;2024-02-26T12:01:41;11.07;;;8.20;;
15327;SDS011;7764;51.430;6.840;2024-02-26T12:04:17;11.33;;;8.03;;
15327;SDS011;7764;51.430;6.840;2024-02-26T12:06:55;13.77;;;9.07;;
15327;SDS011;7764;51.430;6.840;2024-02-26T12:09:31;13.80;;;8.30;;
15327;SDS011;7764;51.430;6.840;2024-02-26T12:12:02;12.50;;;8.20;;
15327;SDS011;7764;51.430;6.840;2024-02-26T12:14:32;13.03;;;8.50;;
15327;SDS011;7764;51.430;6.840;2024-02-26T12:17:02;14.97;;;8.73;;
15327;SDS011;7764;51.430;6.840;2024-02-26T12:19:32;13.27;;;8.70;;
15327;SDS011;7764;51.430;6.840;2024-02-26T12:21:59;12.93;;;8.93;;
15327;SDS011;7764;51.430;6.840;2024-02-26T12:24:26;12.50;;;8.83;;
15327;SDS011;7764;51.430;6.840;2024-02-26T12:26:53;14.07;;;9.00;;
15327;SDS011;7764;51.430;6.840;2024-02-26T12:29:20;13.63;;;8.37;;
15327;SDS011;7764;51.430;6.840;2024-02-26T12:31:47;11.83;;;8.90;;
15327;SDS011;7764;51.430;6.840;2024-02-26T12:34:16;13.03;;;9.10;;
15327;SDS011;7764;51.430;6.840;2024-02-26T12:36:43;15.10;;;9.97;;
15327;SDS011;7764;51.430;6.840;2024-02-26T12:39:10;13.07;;;8.73;;
15327;SDS011;7764;51.430;6.840;2024-02-26T12:41:38;11.83;;;8.50;;
15327;SDS011;7764;51.430;6.840;2024-02-26T12:44:05;12.27;;;8.43;;
15327;SDS011;7764;51.430;6.840;2024-02-26T12:46:33;12.43;;;8.07;;
15327;SDS011;7764;51.430;6.840;2024-02-26T12:49:00;11.93;;;8.63;;
15327;SDS011;7764;51.430;6.840;2024-02-26T12:51:28;13.47;;;9.07;;
15327;SDS011;7764;51.430;6.840;2024-02-26T12:53:56;13.23;;;9.43;;
15327;SDS011;7764;51.430;6.840;2024-02-26T12:56:23;11.37;;;7.23;;
15327;SDS011;7764;51.430;6.840;2024-02-26T12:58:52;13.57;;;8.77;;
15327;SDS011;7764;51.430;6.840;2024-02-26T13:01:21;12.83;;;8.20;;
15327;SDS011;7764;51.430;6.840;2024-02-26T13:03:50;11.93;;;8.53;;
15327;SDS011;7764;51.430;6.840;2024-02-26T13:06:18;12.37;;;8.23;;
15327;SDS011;7764;51.430;6.840;2024-02-26T13:08:49;16.10;;;8.20;;
15327;SDS011;7764;51.430;6.840;2024-02-26T13:11:23;12.20;;;8.67;;
15327;SDS011;7764;51.430;6.840;2024-02-26T13:13:50;12.13;;;8.40;;
15327;SDS011;7764;51.430;6.840;2024-02-26T13:16:17;12.10;;;8.23;;
15327;SDS011;7764;51.430;6.840;2024-02-26T13:18:44;12.40;;;8.63;;
15327;SDS011;7764;51.430;6.840;2024-02-26T13:21:12;13.23;;;8.20;;
15327;SDS011;7764;51.430;6.840;2024-02-26T13:23:40;12.00;;;7.43;;
15327;SDS011;7764;51.430;6.840;2024-02-26T13:26:11;10.60;;;7.43;;
15327;SDS011;7764;51.430;6.840;2024-02-26T13:28:38;26.20;;;17.30;;
15327;SDS011;7764;51.430;6.840;2024-02-26T13:31:05;9.67;;;6.70;;
15327;SDS011;7764;51.430;6.840;2024-02-26T13:33:33;10.83;;;8.00;;
15327;SDS011;7764;51.430;6.840;2024-02-26T13:36:00;9.87;;;7.23;;
15327;SDS011;7764;51.430;6.840;2024-02-26T13:38:29;11.37;;;7.30;;
15327;SDS011;7764;51.430;6.840;2024-02-26T13:40:56;10.00;;;6.67;;
15327;SDS011;7764;51.430;6.840;2024-02-26T13:43:24;11.90;;;7.43;;
15327;SDS011;7764;51.430;6.840;2024-02-26T13:45:51;11.57;;;7.17;;
15327;SDS011;7764;51.430;6.840;2024-02-26T13:48:17;10.20;;;6.97;;
15327;SDS011;7764;51.430;6.840;2024-02-26T13:50:44;9.43;;;6.40;;
15327;SDS011;7764;51.430;6.840;2024-02-26T13:53:11;11.97;;;6.83;;
15327;SDS011;7764;51.430;6.840;2024-02-26T13:55:39;10.90;;;6.50;;
15327;SDS011;7764;51.430;6.840;2024-02-26T13:58:08;9.57;;;6.23;;
15327;SDS011;7764;51.430;6.840;2024-02-26T14:00:40;8.27;;;5.97;;
15327;SDS011;7764;51.430;6.840;2024-02-26T14:03:07;8.70;;;5.83;;
15327;SDS011;7764;51.430;6.840;2024-02-26T14:05:34;8.97;;;6.33;;
15327;SDS011;7764;51.430;6.840;2024-02-26T14:08:01;8.43;;;5.60;;
15327;SDS011;7764;51.430;6.840;2024-02-26T14:10:28;9.83;;;6.17;;
15327;SDS011;7764;51.430;6.840;2024-02-26T14:12:56;13.13;;;6.20;;
15327;SDS011;7764;51.430;6.840;2024-02-26T14:15:25;8.50;;;6.17;;
15327;SDS011;7764;51.430;6.840;2024-02-26T14:17:53;14.30;;;6.87;;
15327;SDS011;7764;51.430;6.840;2024-02-26T14:20:21;9.10;;;6.43;;
15327;SDS011;7764;51.430;6.840;2024-02-26T14:22:49;10.93;;;6.60;;
15327;SDS011;7764;51.430;6.840;2024-02-26T14:25:16;12.17;;;6.23;;
15327;SDS011;7764;51.430;6.840;2024-02-26T14:27:43;10.87;;;6.30;;
15327;SDS011;7764;51.430;6.840;2024-02-26T14:30:11;8.70;;;5.60;;
15327;SDS011;7764;51.430;6.840;2024-02-26T14:32:38;8.83;;;6.30;;
15327;SDS011;7764;51.430;6.840;2024-02-26T14:35:07;11.27;;;5.77;;
15327;SDS011;7764;51.430;6.840;2024-02-26T14:37:35;9.03;;;5.73;;
15327;SDS011;7764;51.430;6.840;2024-02-26T14:40:02;8.87;;;5.50;;
15327;SDS011;7764;51.430;6.840;2024-02-26T14:42:29;11.10;;;6.27;;
15327;SDS011;7764;51.430;6.840;2024-02-26T14:44:57;12.70;;;7.73;;
15327;SDS011;7764;51.430;6.840;2024-02-26T14:47:24;11.07;;;6.07;;
15327;SDS011;7764;51.430;6.840;2024-02-26T14:49:51;10.03;;;6.20;;
15327;SDS011;7764;51.430;6.840;2024-02-26T14:52:20;12.87;;;6.37;;
15327;SDS011;7764;51.430;6.840;2024-02-26T14:54:47;10.83;;;6.43;;
15327;SDS011;7764;51.430;6.840;2024-02-26T14:57:13;8.27;;;5.80;;
15327;SDS011;7764;51.430;6.840;2024-02-26T14:59:40;8.30;;;6.00;;